sensor_id;sensor_type;location;lat;lon;timestamp;pressure;altitude;pressure_sealevel;temperature;humidity
32083;BME280;18597;48.328;7.932;2023-04-27T00:00:06;99636.81;;;8.27;100.00
32083;BME280;18597;48.328;7.932;2023-04-27T00:02:36;99632.00;;;8.32;100.00
32083;BME280;18597;48.328;7.932;2023-04-27T00:05:03;99625.16;;;8.41;100.00
32083;BME280;18597;48.328;7.932;2023-04-27T00:07:30;99622.97;;;8.46;100.00
32083;BME280;18597;48.328;7.932;2023-04-27T00:09:56;99608.75;;;8.34;100.00
32083;BME280;18597;48.328;7.932;2023-04-27T00:12:22;99616.38;;;8.28;100.00
32083;BME280;18597;48.328;7.932;2023-04-27T00:14:48;99613.69;;;8.17;100.00
32083;BME280;18597;48.328;7.932;2023-04-27T00:17:14;99605.34;;;8.21;100.00
32083;BME280;18597;48.328;7.932;2023-04-27T00:19:40;99607.88;;;8.23;100.00
32083;BME280;18597;48.328;7.932;2023-04-27T00:22:07;99603.97;;;8.16;100.00
32083;BME280;18597;48.328;7.932;2023-04-27T00:24:34;99608.38;;;8.28;100.00
32083;BME280;18597;48.328;7.932;2023-04-27T00:27:00;99607.03;;;8.22;100.00
32083;BME280;18597;48.328;7.932;2023-04-27T00:29:26;99600.16;;;8.31;100.00
32083;BME280;18597;48.328;7.932;2023-04-27T00:31:52;99596.56;;;8.32;100.00
32083;BME280;18597;48.328;7.932;2023-04-27T00:34:18;99586.38;;;8.26;100.00
32083;BME280;18597;48.328;7.932;2023-04-27T00:36:44;99588.31;;;8.24;100.00
32083;BME280;18597;48.328;7.932;2023-04-27T00:39:10;99592.28;;;8.29;100.00
32083;BME280;18597;48.328;7.932;2023-04-27T00:41:37;99583.47;;;8.29;100.00
32083;BME280;18597;48.328;7.932;2023-04-27T00:44:04;99595.91;;;8.28;100.00
32083;BME280;18597;48.328;7.932;2023-04-27T00:46:32;99593.38;;;8.27;100.00
32083;BME280;18597;48.328;7.932;2023-04-27T00:48:58;99590.13;;;8.34;100.00
32083;BME280;18597;48.328;7.932;2023-04-27T00:51:25;99592.34;;;8.41;100.00
32083;BME280;18597;48.328;7.932;2023-04-27T00:53:57;99591.50;;;8.40;100.00
32083;BME280;18597;48.328;7.932;2023-04-27T00:56:24;99594.78;;;8.44;100.00
32083;BME280;18597;48.328;7.932;2023-04-27T00:58:50;99595.16;;;8.50;100.00
32083;BME280;18597;48.328;7.932;2023-04-27T01:01:16;99596.84;;;8.40;100.00
32083;BME280;18597;48.328;7.932;2023-04-27T01:03:42;99596.16;;;8.25;100.00
32083;BME280;18597;48.328;7.932;2023-04-27T01:06:09;99589.63;;;8.29;100.00
32083;BME280;18597;48.328;7.932;2023-04-27T01:08:34;99587.38;;;8.36;100.00
32083;BME280;18597;48.328;7.932;2023-04-27T01:11:01;99591.84;;;8.36;100.00
32083;BME280;18597;48.328;7.932;2023-04-27T01:13:27;99588.91;;;8.27;100.00
32083;BME280;18597;48.328;7.932;2023-04-27T01:15:53;99588.66;;;8.19;100.00
32083;BME280;18597;48.328;7.932;2023-04-27T01:18:20;99591.91;;;8.23;100.00
32083;BME280;18597;48.328;7.932;2023-04-27T01:20:46;99593.13;;;8.19;100.00
32083;BME280;18597;48.328;7.932;2023-04-27T01:23:13;99597.34;;;8.21;100.00
32083;BME280;18597;48.328;7.932;2023-04-27T01:25:40;99595.53;;;8.22;100.00
32083;BME280;18597;48.328;7.932;2023-04-27T01:28:06;99592.75;;;8.23;100.00
32083;BME280;18597;48.328;7.932;2023-04-27T01:30:32;99596.22;;;8.37;100.00
32083;BME280;18597;48.328;7.932;2023-04-27T01:32:58;99593.94;;;8.43;100.00
32083;BME280;18597;48.328;7.932;2023-04-27T01:35:24;99597.91;;;8.38;100.00
32083;BME280;18597;48.328;7.932;2023-04-27T01:37:50;99588.66;;;8.30;100.00
32083;BME280;18597;48.328;7.932;2023-04-27T01:40:16;99588.56;;;8.32;100.00
32083;BME280;18597;48.328;7.932;2023-04-27T01:42:42;99589.41;;;8.32;100.00
32083;BME280;18597;48.328;7.932;2023-04-27T01:45:09;99586.94;;;8.18;100.00
32083;BME280;18597;48.328;7.932;2023-04-27T01:47:35;99596.00;;;8.16;100.00
32083;BME280;18597;48.328;7.932;2023-04-27T01:50:01;99596.38;;;8.22;100.00
32083;BME280;18597;48.328;7.932;2023-04-27T01:52:28;99597.00;;;8.26;100.00
32083;BME280;18597;48.328;7.932;2023-04-27T01:54:54;99608.72;;;8.23;100.00
32083;BME280;18597;48.328;7.932;2023-04-27T01:57:20;99605.47;;;8.31;100.00
32083;BME280;18597;48.328;7.932;2023-04-27T01:59:46;99607.06;;;8.33;100.00
32083;BME280;18597;48.328;7.932;2023-04-27T02:02:12;99608.69;;;8.36;100.00
32083;BME280;18597;48.328;7.932;2023-04-27T02:04:38;99600.16;;;8.31;100.00
32083;BME280;18597;48.328;7.932;2023-04-27T02:07:05;99599.94;;;8.34;100.00
32083;BME280;18597;48.328;7.932;2023-04-27T02:09:31;99602.88;;;8.42;100.00
32083;BME280;18597;48.328;7.932;2023-04-27T02:11:57;99608.72;;;8.58;100.00
32083;BME280;18597;48.328;7.932;2023-04-27T02:14:23;99609.69;;;8.57;100.00
32083;BME280;18597;48.328;7.932;2023-04-27T02:16:49;99608.72;;;8.47;100.00
32083;BME280;18597;48.328;7.932;2023-04-27T02:19:15;99610.63;;;8.45;100.00
32083;BME280;18597;48.328;7.932;2023-04-27T02:21:41;99608.84;;;8.57;100.00
32083;BME280;18597;48.328;7.932;2023-04-27T02:24:08;99609.19;;;8.52;100.00
32083;BME280;18597;48.328;7.932;2023-04-27T02:26:34;99613.91;;;8.60;100.00
32083;BME280;18597;48.328;7.932;2023-04-27T02:29:00;99609.81;;;8.56;100.00
32083;BME280;18597;48.328;7.932;2023-04-27T02:31:28;99618.19;;;8.74;100.00
32083;BME280;18597;48.328;7.932;2023-04-27T02:33:53;99614.03;;;8.58;100.00
32083;BME280;18597;48.328;7.932;2023-04-27T02:36:20;99622.75;;;8.49;100.00
32083;BME280;18597;48.328;7.932;2023-04-27T02:38:46;99616.69;;;8.47;100.00
32083;BME280;18597;48.328;7.932;2023-04-27T02:41:12;99622.50;;;8.41;100.00
32083;BME280;18597;48.328;7.932;2023-04-27T02:43:38;99615.56;;;8.39;100.00
32083;BME280;18597;48.328;7.932;2023-04-27T02:46:04;99619.72;;;8.43;100.00
32083;BME280;18597;48.328;7.932;2023-04-27T02:48:31;99615.22;;;8.43;100.00
32083;BME280;18597;48.328;7.932;2023-04-27T02:50:57;99612.31;;;8.46;100.00
32083;BME280;18597;48.328;7.932;2023-04-27T02:53:23;99617.44;;;8.60;100.00
32083;BME280;18597;48.328;7.932;2023-04-27T02:55:49;99622.41;;;8.54;100.00
32083;BME280;18597;48.328;7.932;2023-04-27T02:58:16;99608.22;;;8.53;100.00
32083;BME280;18597;48.328;7.932;2023-04-27T03:00:42;99612.81;;;8.51;100.00
32083;BME280;18597;48.328;7.932;2023-04-27T03:03:09;99617.69;;;8.57;100.00
32083;BME280;18597;48.328;7.932;2023-04-27T03:05:35;99613.19;;;8.58;100.00
32083;BME280;18597;48.328;7.932;2023-04-27T03:08:02;99606.97;;;8.35;100.00
32083;BME280;18597;48.328;7.932;2023-04-27T03:10:28;99606.38;;;8.07;100.00
32083;BME280;18597;48.328;7.932;2023-04-27T03:12:54;99601.81;;;8.10;100.00
32083;BME280;18597;48.328;7.932;2023-04-27T03:15:20;99614.28;;;8.09;100.00
32083;BME280;18597;48.328;7.932;2023-04-27T03:17:47;99617.72;;;7.98;100.00
32083;BME280;18597;48.328;7.932;2023-04-27T03:20:13;99617.97;;;7.95;100.00
32083;BME280;18597;48.328;7.932;2023-04-27T03:22:39;99617.00;;;7.96;100.00
32083;BME280;18597;48.328;7.932;2023-04-27T03:25:05;99600.91;;;7.98;100.00
32083;BME280;18597;48.328;7.932;2023-04-27T03:27:32;99615.06;;;7.98;100.00
32083;BME280;18597;48.328;7.932;2023-04-27T03:29:58;99616.75;;;7.99;100.00
32083;BME280;18597;48.328;7.932;2023-04-27T03:32:23;99614.22;;;7.98;100.00
32083;BME280;18597;48.328;7.932;2023-04-27T03:34:49;99616.75;;;7.99;100.00
32083;BME280;18597;48.328;7.932;2023-04-27T03:37:15;99604.66;;;7.95;100.00
32083;BME280;18597;48.328;7.932;2023-04-27T03:39:41;99617.81;;;8.21;100.00
32083;BME280;18597;48.328;7.932;2023-04-27T03:42:09;99616.50;;;8.26;100.00
32083;BME280;18597;48.328;7.932;2023-04-27T03:44:35;99617.22;;;8.28;100.00
32083;BME280;18597;48.328;7.932;2023-04-27T03:47:01;99613.78;;;8.39;100.00
32083;BME280;18597;48.328;7.932;2023-04-27T03:49:27;99625.19;;;8.28;100.00
32083;BME280;18597;48.328;7.932;2023-04-27T03:51:53;99618.78;;;8.31;100.00
32083;BME280;18597;48.328;7.932;2023-04-27T03:54:19;99626.75;;;8.20;100.00
32083;BME280;18597;48.328;7.932;2023-04-27T03:56:45;99627.66;;;8.31;100.00
32083;BME280;18597;48.328;7.932;2023-04-27T03:59:11;99627.66;;;8.31;100.00
32083;BME280;18597;48.328;7.932;2023-04-27T04:01:37;99628.88;;;8.39;100.00
32083;BME280;18597;48.328;7.932;2023-04-27T04:04:04;99632.09;;;8.31;100.00
32083;BME280;18597;48.328;7.932;2023-04-27T04:06:30;99631.66;;;8.37;100.00
32083;BME280;18597;48.328;7.932;2023-04-27T04:08:56;99626.47;;;8.36;100.00
32083;BME280;18597;48.328;7.932;2023-04-27T04:11:22;99623.69;;;8.37;100.00
32083;BME280;18597;48.328;7.932;2023-04-27T04:13:48;99622.25;;;8.44;100.00
32083;BME280;18597;48.328;7.932;2023-04-27T04:16:14;99619.13;;;8.50;100.00
32083;BME280;18597;48.328;7.932;2023-04-27T04:18:40;99612.09;;;8.60;100.00
32083;BME280;18597;48.328;7.932;2023-04-27T04:21:08;99615.97;;;8.56;100.00
32083;BME280;18597;48.328;7.932;2023-04-27T04:23:34;99614.75;;;8.49;100.00
32083;BME280;18597;48.328;7.932;2023-04-27T04:26:00;99613.28;;;8.45;100.00
32083;BME280;18597;48.328;7.932;2023-04-27T04:28:26;99605.88;;;8.38;100.00
32083;BME280;18597;48.328;7.932;2023-04-27T04:30:52;99609.19;;;8.41;100.00
32083;BME280;18597;48.328;7.932;2023-04-27T04:33:18;99609.19;;;8.41;100.00
32083;BME280;18597;48.328;7.932;2023-04-27T04:35:45;99619.47;;;8.46;100.00
32083;BME280;18597;48.328;7.932;2023-04-27T04:38:11;99614.97;;;8.46;100.00
32083;BME280;18597;48.328;7.932;2023-04-27T04:40:38;99612.81;;;8.51;100.00
32083;BME280;18597;48.328;7.932;2023-04-27T04:43:04;99617.56;;;8.59;100.00
32083;BME280;18597;48.328;7.932;2023-04-27T04:45:31;99607.31;;;8.77;100.00
32083;BME280;18597;48.328;7.932;2023-04-27T04:47:57;99621.47;;;8.88;100.00
32083;BME280;18597;48.328;7.932;2023-04-27T04:50:25;99617.34;;;8.96;100.00
32083;BME280;18597;48.328;7.932;2023-04-27T04:52:51;99619.50;;;8.90;100.00
32083;BME280;18597;48.328;7.932;2023-04-27T04:55:17;99620.88;;;8.85;100.00
32083;BME280;18597;48.328;7.932;2023-04-27T04:57:43;99623.75;;;8.82;100.00
32083;BME280;18597;48.328;7.932;2023-04-27T05:00:10;99627.25;;;8.82;100.00
32083;BME280;18597;48.328;7.932;2023-04-27T05:02:39;99628.84;;;8.85;100.00
32083;BME280;18597;48.328;7.932;2023-04-27T05:05:06;99632.38;;;8.85;100.00
32083;BME280;18597;48.328;7.932;2023-04-27T05:07:33;99624.84;;;8.90;100.00
32083;BME280;18597;48.328;7.932;2023-04-27T05:09:59;99631.25;;;8.88;100.00
32083;BME280;18597;48.328;7.932;2023-04-27T05:12:25;99629.69;;;8.97;100.00
32083;BME280;18597;48.328;7.932;2023-04-27T05:14:52;99638.06;;;9.03;100.00
32083;BME280;18597;48.328;7.932;2023-04-27T05:17:18;99633.31;;;9.18;100.00
32083;BME280;18597;48.328;7.932;2023-04-27T05:19:44;99647.72;;;9.27;100.00
32083;BME280;18597;48.328;7.932;2023-04-27T05:22:10;99637.44;;;9.33;100.00
32083;BME280;18597;48.328;7.932;2023-04-27T05:24:36;99641.88;;;9.44;100.00
32083;BME280;18597;48.328;7.932;2023-04-27T05:27:02;99644.44;;;9.45;100.00
32083;BME280;18597;48.328;7.932;2023-04-27T05:29:28;99648.91;;;9.56;100.00
32083;BME280;18597;48.328;7.932;2023-04-27T05:31:54;99654.69;;;9.72;100.00
32083;BME280;18597;48.328;7.932;2023-04-27T05:34:20;99653.22;;;9.80;100.00
32083;BME280;18597;48.328;7.932;2023-04-27T05:36:46;99659.75;;;9.87;100.00
32083;BME280;18597;48.328;7.932;2023-04-27T05:39:12;99661.19;;;9.91;100.00
32083;BME280;18597;48.328;7.932;2023-04-27T05:41:39;99666.13;;;9.95;100.00
32083;BME280;18597;48.328;7.932;2023-04-27T05:44:05;99665.06;;;9.98;100.00
32083;BME280;18597;48.328;7.932;2023-04-27T05:46:32;99669.16;;;10.02;100.00
32083;BME280;18597;48.328;7.932;2023-04-27T05:48:58;99669.38;;;10.10;100.00
32083;BME280;18597;48.328;7.932;2023-04-27T05:51:25;99673.34;;;10.16;100.00
32083;BME280;18597;48.328;7.932;2023-04-27T05:53:51;99672.84;;;10.22;100.00
32083;BME280;18597;48.328;7.932;2023-04-27T05:56:20;99673.59;;;10.24;100.00
32083;BME280;18597;48.328;7.932;2023-04-27T05:58:46;99678.28;;;10.32;100.00
32083;BME280;18597;48.328;7.932;2023-04-27T06:01:12;99691.00;;;10.39;100.00
32083;BME280;18597;48.328;7.932;2023-04-27T06:03:38;99687.19;;;10.53;100.00
32083;BME280;18597;48.328;7.932;2023-04-27T06:06:04;99682.31;;;10.58;100.00
32083;BME280;18597;48.328;7.932;2023-04-27T06:08:30;99692.00;;;10.59;100.00
32083;BME280;18597;48.328;7.932;2023-04-27T06:10:57;99699.94;;;10.70;100.00
32083;BME280;18597;48.328;7.932;2023-04-27T06:13:23;99684.81;;;10.80;100.00
32083;BME280;18597;48.328;7.932;2023-04-27T06:15:48;99693.63;;;10.92;100.00
32083;BME280;18597;48.328;7.932;2023-04-27T06:18:14;99683.56;;;11.05;100.00
32083;BME280;18597;48.328;7.932;2023-04-27T06:20:40;99687.56;;;11.21;100.00
32083;BME280;18597;48.328;7.932;2023-04-27T06:23:07;99686.63;;;11.31;100.00
32083;BME280;18597;48.328;7.932;2023-04-27T06:25:33;99685.72;;;11.52;100.00
32083;BME280;18597;48.328;7.932;2023-04-27T06:28:02;99691.94;;;11.62;100.00
32083;BME280;18597;48.328;7.932;2023-04-27T06:30:27;99699.72;;;11.65;100.00
32083;BME280;18597;48.328;7.932;2023-04-27T06:32:53;99693.63;;;11.63;100.00
32083;BME280;18597;48.328;7.932;2023-04-27T06:35:20;99699.94;;;11.83;100.00
32083;BME280;18597;48.328;7.932;2023-04-27T06:37:46;99691.19;;;11.81;100.00
32083;BME280;18597;48.328;7.932;2023-04-27T06:40:12;99680.41;;;11.71;100.00
32083;BME280;18597;48.328;7.932;2023-04-27T06:42:38;99689.38;;;11.91;97.99
32083;BME280;18597;48.328;7.932;2023-04-27T06:45:04;99689.66;;;11.88;96.51
32083;BME280;18597;48.328;7.932;2023-04-27T06:47:31;99689.66;;;11.98;97.75
32083;BME280;18597;48.328;7.932;2023-04-27T06:49:57;99693.78;;;12.50;93.74
32083;BME280;18597;48.328;7.932;2023-04-27T06:52:23;99688.38;;;12.89;88.34
32083;BME280;18597;48.328;7.932;2023-04-27T06:54:49;99698.69;;;12.74;88.39
32083;BME280;18597;48.328;7.932;2023-04-27T06:57:15;99697.97;;;12.82;84.46
32083;BME280;18597;48.328;7.932;2023-04-27T06:59:41;99702.31;;;13.49;81.66
32083;BME280;18597;48.328;7.932;2023-04-27T07:02:07;99695.94;;;14.40;75.87
32083;BME280;18597;48.328;7.932;2023-04-27T07:04:33;99693.94;;;15.30;70.50
32083;BME280;18597;48.328;7.932;2023-04-27T07:06:59;99693.47;;;16.19;64.55
32083;BME280;18597;48.328;7.932;2023-04-27T07:09:24;99693.69;;;16.99;60.58
32083;BME280;18597;48.328;7.932;2023-04-27T07:11:51;99689.59;;;17.75;58.08
32083;BME280;18597;48.328;7.932;2023-04-27T07:14:17;99694.69;;;18.32;54.47
32083;BME280;18597;48.328;7.932;2023-04-27T07:16:43;99689.69;;;18.75;51.64
32083;BME280;18597;48.328;7.932;2023-04-27T07:19:09;99694.13;;;19.05;48.88
32083;BME280;18597;48.328;7.932;2023-04-27T07:21:35;99691.16;;;19.30;49.50
32083;BME280;18597;48.328;7.932;2023-04-27T07:24:01;99692.69;;;19.62;48.88
32083;BME280;18597;48.328;7.932;2023-04-27T07:26:28;99693.03;;;19.88;46.88
32083;BME280;18597;48.328;7.932;2023-04-27T07:28:57;99690.19;;;20.11;45.82
32083;BME280;18597;48.328;7.932;2023-04-27T07:31:23;99688.50;;;20.32;44.71
32083;BME280;18597;48.328;7.932;2023-04-27T07:33:49;99687.44;;;20.69;43.17
32083;BME280;18597;48.328;7.932;2023-04-27T07:36:16;99683.38;;;21.08;41.86
32083;BME280;18597;48.328;7.932;2023-04-27T07:38:41;99682.00;;;21.53;41.18
32083;BME280;18597;48.328;7.932;2023-04-27T07:41:07;99692.19;;;22.27;39.79
32083;BME280;18597;48.328;7.932;2023-04-27T07:43:33;99688.06;;;22.70;38.09
32083;BME280;18597;48.328;7.932;2023-04-27T07:46:00;99683.88;;;23.34;38.36
32083;BME280;18597;48.328;7.932;2023-04-27T07:48:26;99669.06;;;24.26;34.91
32083;BME280;18597;48.328;7.932;2023-04-27T07:50:53;99670.53;;;24.85;34.74
32083;BME280;18597;48.328;7.932;2023-04-27T07:53:19;99664.03;;;27.52;29.50
32083;BME280;18597;48.328;7.932;2023-04-27T07:55:46;99655.25;;;29.31;29.07
32083;BME280;18597;48.328;7.932;2023-04-27T07:58:12;99651.09;;;30.33;27.53
32083;BME280;18597;48.328;7.932;2023-04-27T08:00:38;99643.13;;;31.95;24.65
32083;BME280;18597;48.328;7.932;2023-04-27T08:03:04;99646.66;;;32.89;23.45
32083;BME280;18597;48.328;7.932;2023-04-27T08:05:30;99641.38;;;32.67;23.65
32083;BME280;18597;48.328;7.932;2023-04-27T08:07:55;99639.16;;;32.54;23.37
32083;BME280;18597;48.328;7.932;2023-04-27T08:10:22;99638.06;;;32.50;22.83
32083;BME280;18597;48.328;7.932;2023-04-27T08:12:49;99636.63;;;32.32;23.38
32083;BME280;18597;48.328;7.932;2023-04-27T08:15:14;99641.72;;;31.78;24.24
32083;BME280;18597;48.328;7.932;2023-04-27T08:17:40;99639.78;;;31.31;24.41
32083;BME280;18597;48.328;7.932;2023-04-27T08:20:09;99632.47;;;32.29;23.60
32083;BME280;18597;48.328;7.932;2023-04-27T08:22:37;99627.00;;;33.06;23.03
32083;BME280;18597;48.328;7.932;2023-04-27T08:25:04;99628.06;;;33.10;22.52
32083;BME280;18597;48.328;7.932;2023-04-27T08:27:30;99623.88;;;32.26;23.51
32083;BME280;18597;48.328;7.932;2023-04-27T08:29:56;99624.53;;;32.89;23.56
32083;BME280;18597;48.328;7.932;2023-04-27T08:32:23;99627.56;;;35.11;18.96
32083;BME280;18597;48.328;7.932;2023-04-27T08:34:48;99610.81;;;34.58;19.40
32083;BME280;18597;48.328;7.932;2023-04-27T08:37:14;99617.88;;;32.85;20.64
32083;BME280;18597;48.328;7.932;2023-04-27T08:39:40;99612.56;;;33.09;20.15
32083;BME280;18597;48.328;7.932;2023-04-27T08:42:11;99613.72;;;32.93;20.74
32083;BME280;18597;48.328;7.932;2023-04-27T08:44:39;99610.09;;;32.77;22.83
32083;BME280;18597;48.328;7.932;2023-04-27T08:47:06;99617.25;;;33.34;21.09
32083;BME280;18597;48.328;7.932;2023-04-27T08:49:34;99607.50;;;33.52;22.63
32083;BME280;18597;48.328;7.932;2023-04-27T08:52:01;99602.16;;;31.67;23.57
32083;BME280;18597;48.328;7.932;2023-04-27T08:54:26;99607.69;;;29.74;25.76
32083;BME280;18597;48.328;7.932;2023-04-27T08:56:53;99606.13;;;27.77;28.71
32083;BME280;18597;48.328;7.932;2023-04-27T08:59:19;99608.31;;;25.86;31.06
32083;BME280;18597;48.328;7.932;2023-04-27T09:01:46;99611.72;;;23.95;33.32
32083;BME280;18597;48.328;7.932;2023-04-27T09:04:14;99618.53;;;22.94;35.22
32083;BME280;18597;48.328;7.932;2023-04-27T09:06:40;99612.69;;;22.97;35.92
32083;BME280;18597;48.328;7.932;2023-04-27T09:09:06;99615.13;;;23.19;36.01
32083;BME280;18597;48.328;7.932;2023-04-27T09:11:36;99609.00;;;23.43;35.47
32083;BME280;18597;48.328;7.932;2023-04-27T09:14:20;99614.59;;;23.68;34.60
32083;BME280;18597;48.328;7.932;2023-04-27T09:16:55;99619.84;;;23.50;34.91
32083;BME280;18597;48.328;7.932;2023-04-27T09:19:25;99618.50;;;23.21;35.36
32083;BME280;18597;48.328;7.932;2023-04-27T09:24:50;99617.84;;;23.19;35.91
32083;BME280;18597;48.328;7.932;2023-04-27T09:27:19;99617.00;;;23.18;36.24
32083;BME280;18597;48.328;7.932;2023-04-27T09:29:46;99621.66;;;22.78;37.00
32083;BME280;18597;48.328;7.932;2023-04-27T09:32:16;99622.72;;;22.37;37.03
32083;BME280;18597;48.328;7.932;2023-04-27T09:34:43;99621.81;;;22.10;38.04
32083;BME280;18597;48.328;7.932;2023-04-27T09:37:10;99628.81;;;21.78;38.48
32083;BME280;18597;48.328;7.932;2023-04-27T09:39:36;99617.78;;;22.06;37.61
32083;BME280;18597;48.328;7.932;2023-04-27T09:42:03;99621.66;;;22.38;37.13
32083;BME280;18597;48.328;7.932;2023-04-27T09:44:31;99618.47;;;22.22;37.27
32083;BME280;18597;48.328;7.932;2023-04-27T09:46:58;99619.94;;;22.11;37.82
32083;BME280;18597;48.328;7.932;2023-04-27T09:49:26;99607.78;;;21.52;36.39
32083;BME280;18597;48.328;7.932;2023-04-27T09:51:55;99598.38;;;20.79;36.68
32083;BME280;18597;48.328;7.932;2023-04-27T09:54:26;99602.75;;;20.52;38.36
32083;BME280;18597;48.328;7.932;2023-04-27T09:57:25;99597.78;;;20.56;38.37
32083;BME280;18597;48.328;7.932;2023-04-27T10:06:58;99587.94;;;20.12;37.85
32083;BME280;18597;48.328;7.932;2023-04-27T10:09:27;99582.72;;;20.10;39.26
32083;BME280;18597;48.328;7.932;2023-04-27T10:11:55;99582.56;;;20.40;39.22
32083;BME280;18597;48.328;7.932;2023-04-27T10:14:23;99593.41;;;20.61;38.77
32083;BME280;18597;48.328;7.932;2023-04-27T10:16:53;99592.66;;;20.46;37.69
32083;BME280;18597;48.328;7.932;2023-04-27T10:19:21;99592.41;;;20.41;38.45
32083;BME280;18597;48.328;7.932;2023-04-27T10:22:03;99585.03;;;20.35;39.44
32083;BME280;18597;48.328;7.932;2023-04-27T10:24:38;99591.31;;;20.57;38.73
32083;BME280;18597;48.328;7.932;2023-04-27T10:27:07;99584.69;;;20.66;38.36
32083;BME280;18597;48.328;7.932;2023-04-27T10:29:41;99578.97;;;21.23;38.10
32083;BME280;18597;48.328;7.932;2023-04-27T10:32:18;99589.47;;;21.74;36.57
32083;BME280;18597;48.328;7.932;2023-04-27T10:34:45;99586.16;;;21.85;35.76
32083;BME280;18597;48.328;7.932;2023-04-27T10:37:14;99589.50;;;21.87;34.59
32083;BME280;18597;48.328;7.932;2023-04-27T10:39:42;99588.91;;;21.92;36.06
32083;BME280;18597;48.328;7.932;2023-04-27T10:42:09;99586.06;;;22.40;35.01
32083;BME280;18597;48.328;7.932;2023-04-27T10:44:37;99577.25;;;22.71;33.68
32083;BME280;18597;48.328;7.932;2023-04-27T10:47:18;99580.63;;;22.60;34.18
32083;BME280;18597;48.328;7.932;2023-04-27T10:49:44;99572.03;;;22.63;34.48
32083;BME280;18597;48.328;7.932;2023-04-27T10:52:10;99577.91;;;22.40;35.29
32083;BME280;18597;48.328;7.932;2023-04-27T10:54:36;99578.75;;;22.60;35.57
32083;BME280;18597;48.328;7.932;2023-04-27T10:57:08;99579.78;;;22.46;35.20
32083;BME280;18597;48.328;7.932;2023-04-27T10:59:49;99582.50;;;22.46;35.36
32083;BME280;18597;48.328;7.932;2023-04-27T11:02:16;99573.91;;;22.82;35.27
32083;BME280;18597;48.328;7.932;2023-04-27T11:04:41;99570.31;;;23.08;34.55
32083;BME280;18597;48.328;7.932;2023-04-27T11:07:09;99563.19;;;22.81;34.44
32083;BME280;18597;48.328;7.932;2023-04-27T11:09:37;99567.63;;;22.75;34.39
32083;BME280;18597;48.328;7.932;2023-04-27T11:12:07;99561.34;;;22.68;35.31
32083;BME280;18597;48.328;7.932;2023-04-27T11:14:36;99559.28;;;22.37;34.31
32083;BME280;18597;48.328;7.932;2023-04-27T11:17:03;99554.97;;;21.81;35.83
32083;BME280;18597;48.328;7.932;2023-04-27T11:19:30;99550.97;;;21.64;36.23
32083;BME280;18597;48.328;7.932;2023-04-27T11:22:05;99540.72;;;21.73;35.79
32083;BME280;18597;48.328;7.932;2023-04-27T11:24:32;99550.34;;;21.75;35.64
32083;BME280;18597;48.328;7.932;2023-04-27T11:26:58;99545.47;;;21.51;36.03
32083;BME280;18597;48.328;7.932;2023-04-27T11:29:24;99547.81;;;21.67;36.75
32083;BME280;18597;48.328;7.932;2023-04-27T11:31:51;99533.00;;;21.76;35.62
32083;BME280;18597;48.328;7.932;2023-04-27T11:34:19;99539.28;;;21.70;34.25
32083;BME280;18597;48.328;7.932;2023-04-27T11:36:58;99536.16;;;21.80;34.28
32083;BME280;18597;48.328;7.932;2023-04-27T11:39:27;99537.34;;;21.57;35.28
32083;BME280;18597;48.328;7.932;2023-04-27T11:41:53;99524.81;;;21.15;36.34
32083;BME280;18597;48.328;7.932;2023-04-27T11:44:25;99530.00;;;21.03;36.04
32083;BME280;18597;48.328;7.932;2023-04-27T11:46:52;99527.44;;;20.95;35.17
32083;BME280;18597;48.328;7.932;2023-04-27T11:49:18;99524.78;;;21.02;34.83
32083;BME280;18597;48.328;7.932;2023-04-27T11:51:45;99524.84;;;21.22;33.54
32083;BME280;18597;48.328;7.932;2023-04-27T11:54:12;99521.41;;;21.41;35.40
32083;BME280;18597;48.328;7.932;2023-04-27T11:56:41;99523.28;;;21.41;35.49
32083;BME280;18597;48.328;7.932;2023-04-27T11:59:22;99519.19;;;21.23;33.31
32083;BME280;18597;48.328;7.932;2023-04-27T12:01:48;99510.16;;;21.03;33.11
32083;BME280;18597;48.328;7.932;2023-04-27T12:04:15;99507.19;;;20.98;33.64
32083;BME280;18597;48.328;7.932;2023-04-27T12:06:41;99505.78;;;21.09;35.18
32083;BME280;18597;48.328;7.932;2023-04-27T12:09:07;99507.56;;;21.29;35.44
32083;BME280;18597;48.328;7.932;2023-04-27T12:11:33;99497.22;;;21.73;35.48
32083;BME280;18597;48.328;7.932;2023-04-27T12:14:00;99505.41;;;22.06;35.80
32083;BME280;18597;48.328;7.932;2023-04-27T12:16:26;99501.06;;;22.25;34.88
32083;BME280;18597;48.328;7.932;2023-04-27T12:18:52;99501.91;;;22.19;33.70
32083;BME280;18597;48.328;7.932;2023-04-27T12:21:18;99503.97;;;22.36;34.46
32083;BME280;18597;48.328;7.932;2023-04-27T12:23:45;99499.31;;;22.77;34.91
32083;BME280;18597;48.328;7.932;2023-04-27T12:26:11;99506.44;;;22.97;34.21
32083;BME280;18597;48.328;7.932;2023-04-27T12:28:37;99506.53;;;23.22;34.31
32083;BME280;18597;48.328;7.932;2023-04-27T12:31:04;99505.41;;;23.43;33.80
32083;BME280;18597;48.328;7.932;2023-04-27T12:33:30;99507.13;;;23.76;33.32
32083;BME280;18597;48.328;7.932;2023-04-27T12:35:56;99503.25;;;24.15;32.67
32083;BME280;18597;48.328;7.932;2023-04-27T12:38:22;99495.91;;;24.66;32.63
32083;BME280;18597;48.328;7.932;2023-04-27T12:40:48;99488.63;;;24.96;31.89
32083;BME280;18597;48.328;7.932;2023-04-27T12:43:15;99489.41;;;25.22;31.07
32083;BME280;18597;48.328;7.932;2023-04-27T12:45:41;99497.78;;;25.38;30.26
32083;BME280;18597;48.328;7.932;2023-04-27T12:48:07;99495.28;;;25.37;30.29
32083;BME280;18597;48.328;7.932;2023-04-27T12:50:35;99502.41;;;25.56;30.17
32083;BME280;18597;48.328;7.932;2023-04-27T12:53:02;99495.88;;;25.57;29.54
32083;BME280;18597;48.328;7.932;2023-04-27T12:55:28;99494.13;;;25.44;30.75
32083;BME280;18597;48.328;7.932;2023-04-27T12:57:54;99487.19;;;24.57;29.79
32083;BME280;18597;48.328;7.932;2023-04-27T13:00:22;99482.25;;;24.41;31.73
32083;BME280;18597;48.328;7.932;2023-04-27T13:02:50;99482.13;;;24.35;32.17
32083;BME280;18597;48.328;7.932;2023-04-27T13:05:17;99483.03;;;24.23;32.07
32083;BME280;18597;48.328;7.932;2023-04-27T13:07:42;99482.44;;;24.21;32.72